sensor_id;sensor_type;location;lat;lon;timestamp;P1;durP1;ratioP1;P2;durP2;ratioP2
9254;SDS011;4663;49.120;9.730;2023-08-31T00:02:11;26.73;;;25.33;;
9254;SDS011;4663;49.120;9.730;2023-08-31T00:04:36;29.13;;;26.85;;
9254;SDS011;4663;49.120;9.730;2023-08-31T00:07:02;28.13;;;26.58;;
9254;SDS011;4663;49.120;9.730;2023-08-31T00:09:28;26.80;;;25.33;;
9254;SDS011;4663;49.120;9.730;2023-08-31T00:11:56;28.95;;;27.35;;
9254;SDS011;4663;49.120;9.730;2023-08-31T00:14:25;28.08;;;26.48;;
9254;SDS011;4663;49.120;9.730;2023-08-31T00:16:51;27.27;;;25.67;;
9254;SDS011;4663;49.120;9.730;2023-08-31T00:19:17;27.17;;;25.63;;
9254;SDS011;4663;49.120;9.730;2023-08-31T00:21:42;27.35;;;25.92;;
9254;SDS011;4663;49.120;9.730;2023-08-31T00:24:08;28.80;;;27.35;;
9254;SDS011;4663;49.120;9.730;2023-08-31T00:26:35;28.08;;;26.50;;
9254;SDS011;4663;49.120;9.730;2023-08-31T00:29:05;30.52;;;28.90;;
9254;SDS011;4663;49.120;9.730;2023-08-31T00:31:31;29.45;;;27.83;;
9254;SDS011;4663;49.120;9.730;2023-08-31T00:33:56;30.83;;;28.80;;
9254;SDS011;4663;49.120;9.730;2023-08-31T00:36:21;30.23;;;28.67;;
9254;SDS011;4663;49.120;9.730;2023-08-31T00:38:48;30.98;;;29.17;;
9254;SDS011;4663;49.120;9.730;2023-08-31T00:41:13;32.40;;;30.42;;
9254;SDS011;4663;49.120;9.730;2023-08-31T00:43:38;30.95;;;29.23;;
9254;SDS011;4663;49.120;9.730;2023-08-31T00:46:04;35.90;;;33.92;;
9254;SDS011;4663;49.120;9.730;2023-08-31T00:48:29;31.77;;;29.88;;
9254;SDS011;4663;49.120;9.730;2023-08-31T00:50:54;31.70;;;30.00;;
9254;SDS011;4663;49.120;9.730;2023-08-31T00:53:21;31.20;;;29.55;;
9254;SDS011;4663;49.120;9.730;2023-08-31T00:55:46;30.67;;;28.98;;
9254;SDS011;4663;49.120;9.730;2023-08-31T00:58:12;30.85;;;29.20;;
9254;SDS011;4663;49.120;9.730;2023-08-31T01:14:25;27.63;;;25.73;;
9254;SDS011;4663;49.120;9.730;2023-08-31T01:16:57;28.20;;;26.27;;
9254;SDS011;4663;49.120;9.730;2023-08-31T01:22:05;27.85;;;25.75;;
9254;SDS011;4663;49.120;9.730;2023-08-31T01:24:36;26.80;;;25.08;;
9254;SDS011;4663;49.120;9.730;2023-08-31T01:27:02;28.08;;;25.88;;
9254;SDS011;4663;49.120;9.730;2023-08-31T01:29:29;27.05;;;25.27;;
9254;SDS011;4663;49.120;9.730;2023-08-31T01:31:55;28.52;;;25.95;;
9254;SDS011;4663;49.120;9.730;2023-08-31T01:34:20;26.25;;;24.48;;
9254;SDS011;4663;49.120;9.730;2023-08-31T01:36:46;24.67;;;23.00;;
9254;SDS011;4663;49.120;9.730;2023-08-31T01:39:20;22.60;;;21.02;;
9254;SDS011;4663;49.120;9.730;2023-08-31T01:42:03;22.88;;;21.15;;
9254;SDS011;4663;49.120;9.730;2023-08-31T01:44:32;22.48;;;21.02;;
9254;SDS011;4663;49.120;9.730;2023-08-31T01:47:04;22.73;;;20.80;;
9254;SDS011;4663;49.120;9.730;2023-08-31T01:49:39;20.48;;;19.05;;
9254;SDS011;4663;49.120;9.730;2023-08-31T01:52:05;20.75;;;19.25;;
9254;SDS011;4663;49.120;9.730;2023-08-31T01:54:32;22.70;;;21.05;;
9254;SDS011;4663;49.120;9.730;2023-08-31T01:56:58;21.83;;;20.00;;
9254;SDS011;4663;49.120;9.730;2023-08-31T01:59:24;19.42;;;17.75;;
9254;SDS011;4663;49.120;9.730;2023-08-31T02:01:49;20.13;;;18.38;;
9254;SDS011;4663;49.120;9.730;2023-08-31T02:04:14;18.90;;;17.30;;
9254;SDS011;4663;49.120;9.730;2023-08-31T02:06:40;20.00;;;18.23;;
9254;SDS011;4663;49.120;9.730;2023-08-31T02:09:05;19.02;;;17.38;;
9254;SDS011;4663;49.120;9.730;2023-08-31T02:11:31;19.05;;;17.08;;
9254;SDS011;4663;49.120;9.730;2023-08-31T02:13:57;17.92;;;16.35;;
9254;SDS011;4663;49.120;9.730;2023-08-31T02:16:23;19.00;;;17.23;;
9254;SDS011;4663;49.120;9.730;2023-08-31T02:18:49;19.38;;;17.58;;
9254;SDS011;4663;49.120;9.730;2023-08-31T02:21:14;18.70;;;17.30;;
9254;SDS011;4663;49.120;9.730;2023-08-31T02:23:40;19.40;;;17.40;;
9254;SDS011;4663;49.120;9.730;2023-08-31T02:26:05;17.50;;;16.30;;
9254;SDS011;4663;49.120;9.730;2023-08-31T02:28:31;18.80;;;17.23;;
9254;SDS011;4663;49.120;9.730;2023-08-31T02:31:01;18.17;;;16.75;;
9254;SDS011;4663;49.120;9.730;2023-08-31T02:33:27;18.80;;;17.13;;
9254;SDS011;4663;49.120;9.730;2023-08-31T02:35:54;17.27;;;15.65;;
9254;SDS011;4663;49.120;9.730;2023-08-31T02:38:20;18.33;;;16.77;;
9254;SDS011;4663;49.120;9.730;2023-08-31T02:40:46;18.38;;;16.88;;
9254;SDS011;4663;49.120;9.730;2023-08-31T02:43:12;19.10;;;17.50;;
9254;SDS011;4663;49.120;9.730;2023-08-31T02:45:38;20.40;;;18.73;;
9254;SDS011;4663;49.120;9.730;2023-08-31T02:48:03;19.67;;;18.23;;
9254;SDS011;4663;49.120;9.730;2023-08-31T02:50:31;19.33;;;17.70;;
9254;SDS011;4663;49.120;9.730;2023-08-31T02:52:56;20.60;;;18.90;;
9254;SDS011;4663;49.120;9.730;2023-08-31T02:55:22;19.33;;;17.77;;
9254;SDS011;4663;49.120;9.730;2023-08-31T02:57:48;19.23;;;17.48;;
9254;SDS011;4663;49.120;9.730;2023-08-31T03:00:13;20.35;;;18.75;;
9254;SDS011;4663;49.120;9.730;2023-08-31T03:02:39;19.92;;;18.42;;
9254;SDS011;4663;49.120;9.730;2023-08-31T03:05:05;22.23;;;20.20;;
9254;SDS011;4663;49.120;9.730;2023-08-31T03:07:31;21.08;;;18.38;;
9254;SDS011;4663;49.120;9.730;2023-08-31T03:09:57;20.75;;;19.15;;
9254;SDS011;4663;49.120;9.730;2023-08-31T03:12:22;20.17;;;18.52;;
9254;SDS011;4663;49.120;9.730;2023-08-31T03:14:48;21.75;;;19.95;;
9254;SDS011;4663;49.120;9.730;2023-08-31T03:17:13;20.65;;;18.85;;
9254;SDS011;4663;49.120;9.730;2023-08-31T03:19:39;20.70;;;18.77;;
9254;SDS011;4663;49.120;9.730;2023-08-31T03:22:04;19.80;;;18.13;;
9254;SDS011;4663;49.120;9.730;2023-08-31T03:24:31;20.35;;;18.30;;
9254;SDS011;4663;49.120;9.730;2023-08-31T03:26:57;20.83;;;18.92;;
9254;SDS011;4663;49.120;9.730;2023-08-31T03:29:23;22.80;;;19.48;;
9254;SDS011;4663;49.120;9.730;2023-08-31T03:31:48;25.02;;;19.45;;
9254;SDS011;4663;49.120;9.730;2023-08-31T03:34:13;22.33;;;20.38;;
9254;SDS011;4663;49.120;9.730;2023-08-31T03:36:39;23.98;;;21.60;;
9254;SDS011;4663;49.120;9.730;2023-08-31T03:39:04;24.85;;;20.90;;
9254;SDS011;4663;49.120;9.730;2023-08-31T03:41:29;21.60;;;19.90;;
9254;SDS011;4663;49.120;9.730;2023-08-31T03:43:55;22.35;;;19.90;;
9254;SDS011;4663;49.120;9.730;2023-08-31T03:46:21;23.70;;;21.33;;
9254;SDS011;4663;49.120;9.730;2023-08-31T03:48:46;22.25;;;20.33;;
9254;SDS011;4663;49.120;9.730;2023-08-31T03:51:12;24.05;;;21.75;;
9254;SDS011;4663;49.120;9.730;2023-08-31T03:53:37;23.02;;;20.38;;
9254;SDS011;4663;49.120;9.730;2023-08-31T03:56:02;23.45;;;20.98;;
9254;SDS011;4663;49.120;9.730;2023-08-31T03:58:29;22.80;;;20.60;;
9254;SDS011;4663;49.120;9.730;2023-08-31T04:00:55;24.17;;;21.73;;
9254;SDS011;4663;49.120;9.730;2023-08-31T04:03:20;22.42;;;20.25;;
9254;SDS011;4663;49.120;9.730;2023-08-31T04:05:46;21.50;;;19.45;;
9254;SDS011;4663;49.120;9.730;2023-08-31T04:08:11;22.42;;;20.30;;
9254;SDS011;4663;49.120;9.730;2023-08-31T04:10:37;22.27;;;20.25;;
9254;SDS011;4663;49.120;9.730;2023-08-31T04:13:02;21.60;;;19.60;;
9254;SDS011;4663;49.120;9.730;2023-08-31T04:15:28;22.35;;;20.13;;
9254;SDS011;4663;49.120;9.730;2023-08-31T04:17:55;20.73;;;18.70;;
9254;SDS011;4663;49.120;9.730;2023-08-31T04:20:21;21.65;;;20.13;;
9254;SDS011;4663;49.120;9.730;2023-08-31T04:22:47;22.60;;;20.23;;
9254;SDS011;4663;49.120;9.730;2023-08-31T04:25:12;22.05;;;19.80;;
9254;SDS011;4663;49.120;9.730;2023-08-31T04:27:37;20.67;;;18.77;;
9254;SDS011;4663;49.120;9.730;2023-08-31T04:30:05;20.20;;;18.27;;
9254;SDS011;4663;49.120;9.730;2023-08-31T04:32:32;20.52;;;18.75;;
9254;SDS011;4663;49.120;9.730;2023-08-31T04:34:57;21.17;;;19.17;;
9254;SDS011;4663;49.120;9.730;2023-08-31T04:37:23;21.10;;;19.27;;
9254;SDS011;4663;49.120;9.730;2023-08-31T04:39:48;24.55;;;19.60;;
9254;SDS011;4663;49.120;9.730;2023-08-31T04:42:14;20.52;;;18.33;;
9254;SDS011;4663;49.120;9.730;2023-08-31T04:44:41;22.15;;;19.50;;
9254;SDS011;4663;49.120;9.730;2023-08-31T04:47:07;20.23;;;18.23;;
9254;SDS011;4663;49.120;9.730;2023-08-31T04:49:32;20.65;;;18.77;;
9254;SDS011;4663;49.120;9.730;2023-08-31T04:51:58;20.48;;;18.45;;
9254;SDS011;4663;49.120;9.730;2023-08-31T04:54:23;19.75;;;18.02;;
9254;SDS011;4663;49.120;9.730;2023-08-31T04:56:49;20.92;;;19.13;;
9254;SDS011;4663;49.120;9.730;2023-08-31T04:59:15;21.63;;;19.48;;
9254;SDS011;4663;49.120;9.730;2023-08-31T05:01:40;20.85;;;18.52;;
9254;SDS011;4663;49.120;9.730;2023-08-31T05:04:05;63.63;;;59.45;;
9254;SDS011;4663;49.120;9.730;2023-08-31T05:06:31;21.48;;;19.15;;
9254;SDS011;4663;49.120;9.730;2023-08-31T05:08:57;20.10;;;18.00;;
9254;SDS011;4663;49.120;9.730;2023-08-31T05:11:23;20.98;;;19.25;;
9254;SDS011;4663;49.120;9.730;2023-08-31T05:13:48;19.17;;;17.52;;
9254;SDS011;4663;49.120;9.730;2023-08-31T05:16:14;20.83;;;17.83;;
9254;SDS011;4663;49.120;9.730;2023-08-31T05:18:39;20.52;;;18.63;;
9254;SDS011;4663;49.120;9.730;2023-08-31T05:21:05;22.67;;;19.38;;
9254;SDS011;4663;49.120;9.730;2023-08-31T05:23:31;22.10;;;20.38;;
9254;SDS011;4663;49.120;9.730;2023-08-31T05:25:56;23.92;;;22.02;;
9254;SDS011;4663;49.120;9.730;2023-08-31T05:28:22;23.20;;;21.23;;
9254;SDS011;4663;49.120;9.730;2023-08-31T05:30:49;26.25;;;23.67;;
9254;SDS011;4663;49.120;9.730;2023-08-31T05:33:16;23.63;;;21.23;;
9254;SDS011;4663;49.120;9.730;2023-08-31T05:35:41;22.58;;;20.67;;
9254;SDS011;4663;49.120;9.730;2023-08-31T05:38:07;25.40;;;23.13;;
9254;SDS011;4663;49.120;9.730;2023-08-31T05:40:32;26.75;;;24.48;;
9254;SDS011;4663;49.120;9.730;2023-08-31T05:42:58;28.85;;;26.55;;
9254;SDS011;4663;49.120;9.730;2023-08-31T05:45:23;26.48;;;24.27;;
9254;SDS011;4663;49.120;9.730;2023-08-31T05:47:49;26.60;;;24.60;;
9254;SDS011;4663;49.120;9.730;2023-08-31T05:50:14;29.75;;;27.58;;
9254;SDS011;4663;49.120;9.730;2023-08-31T05:52:39;32.80;;;30.38;;
9254;SDS011;4663;49.120;9.730;2023-08-31T05:55:09;31.67;;;29.40;;
9254;SDS011;4663;49.120;9.730;2023-08-31T05:57:35;33.70;;;30.80;;
9254;SDS011;4663;49.120;9.730;2023-08-31T06:00:00;32.92;;;30.50;;
9254;SDS011;4663;49.120;9.730;2023-08-31T06:02:26;34.40;;;32.00;;
9254;SDS011;4663;49.120;9.730;2023-08-31T06:04:51;30.25;;;28.23;;
9254;SDS011;4663;49.120;9.730;2023-08-31T06:07:17;27.80;;;25.65;;
9254;SDS011;4663;49.120;9.730;2023-08-31T06:09:42;26.15;;;24.27;;
9254;SDS011;4663;49.120;9.730;2023-08-31T06:12:08;24.00;;;22.00;;
9254;SDS011;4663;49.120;9.730;2023-08-31T06:14:33;25.25;;;23.25;;
9254;SDS011;4663;49.120;9.730;2023-08-31T06:16:59;24.83;;;23.20;;
9254;SDS011;4663;49.120;9.730;2023-08-31T06:19:24;21.75;;;20.17;;
9254;SDS011;4663;49.120;9.730;2023-08-31T06:21:49;21.92;;;20.48;;
9254;SDS011;4663;49.120;9.730;2023-08-31T06:24:15;19.80;;;18.50;;
9254;SDS011;4663;49.120;9.730;2023-08-31T06:26:40;22.13;;;20.30;;
9254;SDS011;4663;49.120;9.730;2023-08-31T06:29:06;21.98;;;20.05;;
9254;SDS011;4663;49.120;9.730;2023-08-31T06:31:33;19.55;;;18.17;;
9254;SDS011;4663;49.120;9.730;2023-08-31T06:33:59;23.42;;;22.23;;
9254;SDS011;4663;49.120;9.730;2023-08-31T06:36:24;22.48;;;21.08;;
9254;SDS011;4663;49.120;9.730;2023-08-31T06:38:50;24.35;;;21.48;;
9254;SDS011;4663;49.120;9.730;2023-08-31T06:41:15;20.77;;;19.52;;
9254;SDS011;4663;49.120;9.730;2023-08-31T06:43:41;20.05;;;18.65;;
9254;SDS011;4663;49.120;9.730;2023-08-31T06:46:06;20.25;;;18.95;;
9254;SDS011;4663;49.120;9.730;2023-08-31T06:48:32;17.52;;;16.35;;
9254;SDS011;4663;49.120;9.730;2023-08-31T06:50:57;16.50;;;15.50;;
9254;SDS011;4663;49.120;9.730;2023-08-31T06:53:22;17.45;;;16.27;;
9254;SDS011;4663;49.120;9.730;2023-08-31T06:55:48;18.95;;;17.65;;
9254;SDS011;4663;49.120;9.730;2023-08-31T06:58:13;18.40;;;17.30;;
9254;SDS011;4663;49.120;9.730;2023-08-31T07:00:39;20.42;;;19.02;;
9254;SDS011;4663;49.120;9.730;2023-08-31T07:03:04;24.58;;;23.17;;
9254;SDS011;4663;49.120;9.730;2023-08-31T07:05:33;34.08;;;31.90;;
9254;SDS011;4663;49.120;9.730;2023-08-31T07:08:02;19.17;;;18.00;;
9254;SDS011;4663;49.120;9.730;2023-08-31T07:10:28;50.45;;;47.83;;
9254;SDS011;4663;49.120;9.730;2023-08-31T07:12:53;46.90;;;43.95;;
9254;SDS011;4663;49.120;9.730;2023-08-31T07:15:18;26.08;;;24.63;;
9254;SDS011;4663;49.120;9.730;2023-08-31T07:17:44;33.05;;;31.25;;
9254;SDS011;4663;49.120;9.730;2023-08-31T07:20:09;33.47;;;31.63;;
9254;SDS011;4663;49.120;9.730;2023-08-31T07:22:36;25.17;;;23.80;;
9254;SDS011;4663;49.120;9.730;2023-08-31T07:25:02;17.80;;;16.73;;
9254;SDS011;4663;49.120;9.730;2023-08-31T07:27:29;17.52;;;16.23;;
9254;SDS011;4663;49.120;9.730;2023-08-31T07:29:54;20.92;;;19.77;;
9254;SDS011;4663;49.120;9.730;2023-08-31T07:32:20;17.48;;;16.55;;
9254;SDS011;4663;49.120;9.730;2023-08-31T07:34:45;19.90;;;18.80;;
9254;SDS011;4663;49.120;9.730;2023-08-31T07:37:11;24.60;;;23.05;;
9254;SDS011;4663;49.120;9.730;2023-08-31T07:39:36;36.90;;;35.03;;
9254;SDS011;4663;49.120;9.730;2023-08-31T07:42:02;38.22;;;36.22;;
9254;SDS011;4663;49.120;9.730;2023-08-31T07:44:27;35.88;;;34.05;;
9254;SDS011;4663;49.120;9.730;2023-08-31T07:46:53;30.15;;;28.55;;
9254;SDS011;4663;49.120;9.730;2023-08-31T07:49:18;22.98;;;21.67;;
9254;SDS011;4663;49.120;9.730;2023-08-31T07:51:43;27.00;;;25.15;;
9254;SDS011;4663;49.120;9.730;2023-08-31T07:54:09;22.67;;;21.25;;
9254;SDS011;4663;49.120;9.730;2023-08-31T07:56:36;27.38;;;25.88;;
9254;SDS011;4663;49.120;9.730;2023-08-31T07:59:01;35.80;;;33.97;;
9254;SDS011;4663;49.120;9.730;2023-08-31T08:01:27;44.50;;;42.33;;
9254;SDS011;4663;49.120;9.730;2023-08-31T08:03:52;43.00;;;40.75;;
9254;SDS011;4663;49.120;9.730;2023-08-31T08:06:18;39.38;;;37.30;;
9254;SDS011;4663;49.120;9.730;2023-08-31T08:08:43;41.80;;;39.78;;
9254;SDS011;4663;49.120;9.730;2023-08-31T08:11:10;26.73;;;25.42;;
9254;SDS011;4663;49.120;9.730;2023-08-31T08:13:35;34.72;;;32.78;;
9254;SDS011;4663;49.120;9.730;2023-08-31T08:16:01;33.75;;;31.98;;
9254;SDS011;4663;49.120;9.730;2023-08-31T08:18:26;23.20;;;22.00;;
9254;SDS011;4663;49.120;9.730;2023-08-31T08:20:52;20.15;;;19.00;;
9254;SDS011;4663;49.120;9.730;2023-08-31T08:23:17;23.08;;;21.88;;
9254;SDS011;4663;49.120;9.730;2023-08-31T08:25:43;21.40;;;20.20;;
9254;SDS011;4663;49.120;9.730;2023-08-31T08:28:08;18.35;;;17.25;;
9254;SDS011;4663;49.120;9.730;2023-08-31T08:30:34;26.77;;;24.92;;
9254;SDS011;4663;49.120;9.730;2023-08-31T08:32:59;25.92;;;24.30;;
9254;SDS011;4663;49.120;9.730;2023-08-31T08:35:25;21.33;;;20.20;;
9254;SDS011;4663;49.120;9.730;2023-08-31T08:37:50;28.27;;;26.92;;
9254;SDS011;4663;49.120;9.730;2023-08-31T08:40:16;34.33;;;32.47;;
9254;SDS011;4663;49.120;9.730;2023-08-31T08:42:43;27.42;;;25.98;;
9254;SDS011;4663;49.120;9.730;2023-08-31T08:45:14;26.13;;;24.70;;
9254;SDS011;4663;49.120;9.730;2023-08-31T08:47:40;35.17;;;33.40;;
9254;SDS011;4663;49.120;9.730;2023-08-31T08:50:08;44.78;;;42.50;;
9254;SDS011;4663;49.120;9.730;2023-08-31T08:52:35;48.38;;;45.85;;
9254;SDS011;4663;49.120;9.730;2023-08-31T08:55:07;53.75;;;50.90;;
9254;SDS011;4663;49.120;9.730;2023-08-31T08:57:34;52.75;;;50.22;;
9254;SDS011;4663;49.120;9.730;2023-08-31T09:00:00;48.80;;;46.40;;
9254;SDS011;4663;49.120;9.730;2023-08-31T09:02:25;49.60;;;47.05;;
9254;SDS011;4663;49.120;9.730;2023-08-31T09:04:52;22.73;;;21.38;;
9254;SDS011;4663;49.120;9.730;2023-08-31T09:07:22;24.15;;;22.73;;
9254;SDS011;4663;49.120;9.730;2023-08-31T09:09:52;22.80;;;21.58;;
9254;SDS011;4663;49.120;9.730;2023-08-31T09:12:18;25.33;;;24.02;;
9254;SDS011;4663;49.120;9.730;2023-08-31T09:15:02;29.52;;;27.95;;
9254;SDS011;4663;49.120;9.730;2023-08-31T09:17:38;25.35;;;24.05;;
9254;SDS011;4663;49.120;9.730;2023-08-31T09:20:09;18.13;;;17.10;;
9254;SDS011;4663;49.120;9.730;2023-08-31T09:22:35;20.52;;;19.08;;
9254;SDS011;4663;49.120;9.730;2023-08-31T09:25:01;16.92;;;16.00;;
9254;SDS011;4663;49.120;9.730;2023-08-31T09:27:29;16.63;;;15.52;;
9254;SDS011;4663;49.120;9.730;2023-08-31T09:29:56;21.52;;;20.23;;
9254;SDS011;4663;49.120;9.730;2023-08-31T09:32:21;23.33;;;21.77;;
9254;SDS011;4663;49.120;9.730;2023-08-31T09:34:47;23.98;;;22.77;;
9254;SDS011;4663;49.120;9.730;2023-08-31T09:37:15;26.77;;;25.25;;
9254;SDS011;4663;49.120;9.730;2023-08-31T09:39:41;19.52;;;18.33;;
9254;SDS011;4663;49.120;9.730;2023-08-31T09:42:07;17.73;;;16.70;;
9254;SDS011;4663;49.120;9.730;2023-08-31T09:44:33;20.30;;;19.17;;
9254;SDS011;4663;49.120;9.730;2023-08-31T09:46:59;27.63;;;26.23;;
9254;SDS011;4663;49.120;9.730;2023-08-31T09:49:25;23.95;;;22.45;;
9254;SDS011;4663;49.120;9.730;2023-08-31T09:51:52;22.60;;;21.40;;
9254;SDS011;4663;49.120;9.730;2023-08-31T09:54:18;24.40;;;23.20;;
9254;SDS011;4663;49.120;9.730;2023-08-31T09:56:47;23.20;;;21.67;;
9254;SDS011;4663;49.120;9.730;2023-08-31T09:59:14;22.70;;;21.38;;
9254;SDS011;4663;49.120;9.730;2023-08-31T10:01:40;21.33;;;20.25;;
9254;SDS011;4663;49.120;9.730;2023-08-31T10:04:07;24.63;;;23.33;;
9254;SDS011;4663;49.120;9.730;2023-08-31T10:06:34;25.67;;;24.30;;
9254;SDS011;4663;49.120;9.730;2023-08-31T10:09:07;22.75;;;21.63;;
9254;SDS011;4663;49.120;9.730;2023-08-31T10:11:37;21.20;;;20.00;;
9254;SDS011;4663;49.120;9.730;2023-08-31T10:14:04;20.20;;;19.00;;
9254;SDS011;4663;49.120;9.730;2023-08-31T10:16:29;20.65;;;19.55;;
9254;SDS011;4663;49.120;9.730;2023-08-31T10:18:56;20.70;;;19.42;;
9254;SDS011;4663;49.120;9.730;2023-08-31T10:21:21;21.08;;;19.88;;
9254;SDS011;4663;49.120;9.730;2023-08-31T10:23:48;22.38;;;21.23;;
9254;SDS011;4663;49.120;9.730;2023-08-31T10:26:27;20.75;;;19.58;;
9254;SDS011;4663;49.120;9.730;2023-08-31T10:28:54;21.48;;;20.38;;
9254;SDS011;4663;49.120;9.730;2023-08-31T10:31:22;21.02;;;19.80;;
9254;SDS011;4663;49.120;9.730;2023-08-31T10:34:09;20.83;;;19.73;;
9254;SDS011;4663;49.120;9.730;2023-08-31T10:36:37;23.48;;;22.23;;
9254;SDS011;4663;49.120;9.730;2023-08-31T10:39:11;22.77;;;21.42;;
9254;SDS011;4663;49.120;9.730;2023-08-31T10:41:39;20.40;;;19.40;;
9254;SDS011;4663;49.120;9.730;2023-08-31T10:46:50;25.70;;;24.27;;
9254;SDS011;4663;49.120;9.730;2023-08-31T10:49:18;25.15;;;23.73;;
9254;SDS011;4663;49.120;9.730;2023-08-31T10:51:49;24.55;;;23.25;;
9254;SDS011;4663;49.120;9.730;2023-08-31T10:59:49;18.88;;;17.90;;
9254;SDS011;4663;49.120;9.730;2023-08-31T11:05:10;18.30;;;17.35;;
9254;SDS011;4663;49.120;9.730;2023-08-31T11:07:37;26.05;;;24.50;;
9254;SDS011;4663;49.120;9.730;2023-08-31T11:12:48;35.65;;;33.88;;
9254;SDS011;4663;49.120;9.730;2023-08-31T11:15:16;38.55;;;36.65;;
9254;SDS011;4663;49.120;9.730;2023-08-31T11:17:43;38.83;;;36.88;;
9254;SDS011;4663;49.120;9.730;2023-08-31T11:20:12;35.40;;;33.67;;
9254;SDS011;4663;49.120;9.730;2023-08-31T11:22:40;35.20;;;33.40;;
9254;SDS011;4663;49.120;9.730;2023-08-31T11:25:07;35.50;;;33.70;;
9254;SDS011;4663;49.120;9.730;2023-08-31T11:27:34;35.97;;;33.97;;
9254;SDS011;4663;49.120;9.730;2023-08-31T11:30:00;37.83;;;35.88;;
9254;SDS011;4663;49.120;9.730;2023-08-31T11:32:25;36.08;;;34.35;;
9254;SDS011;4663;49.120;9.730;2023-08-31T11:34:50;38.33;;;36.38;;
9254;SDS011;4663;49.120;9.730;2023-08-31T11:37:19;40.63;;;38.58;;
9254;SDS011;4663;49.120;9.730;2023-08-31T11:39:53;37.38;;;35.38;;
9254;SDS011;4663;49.120;9.730;2023-08-31T11:42:20;37.92;;;36.00;;
9254;SDS011;4663;49.120;9.730;2023-08-31T11:44:47;35.33;;;33.47;;
9254;SDS011;4663;49.120;9.730;2023-08-31T11:47:14;31.20;;;29.63;;
9254;SDS011;4663;49.120;9.730;2023-08-31T11:49:41;22.48;;;21.38;;
9254;SDS011;4663;49.120;9.730;2023-08-31T11:52:09;19.40;;;18.30;;
9254;SDS011;4663;49.120;9.730;2023-08-31T11:54:39;19.48;;;18.42;;
9254;SDS011;4663;49.120;9.730;2023-08-31T11:57:08;19.25;;;18.13;;
9254;SDS011;4663;49.120;9.730;2023-08-31T11:59:37;16.35;;;15.38;;
9254;SDS011;4663;49.120;9.730;2023-08-31T12:02:07;20.90;;;19.88;;
9254;SDS011;4663;49.120;9.730;2023-08-31T12:04:33;18.20;;;17.17;;
9254;SDS011;4663;49.120;9.730;2023-08-31T12:07:08;17.58;;;16.67;;
9254;SDS011;4663;49.120;9.730;2023-08-31T12:09:34;17.08;;;16.20;;
9254;SDS011;4663;49.120;9.730;2023-08-31T12:12:00;16.73;;;15.82;;
9254;SDS011;4663;49.120;9.730;2023-08-31T12:14:26;18.80;;;17.70;;
9254;SDS011;4663;49.120;9.730;2023-08-31T12:16:59;18.48;;;17.55;;
9254;SDS011;4663;49.120;9.730;2023-08-31T12:19:28;19.98;;;18.58;;
9254;SDS011;4663;49.120;9.730;2023-08-31T12:21:57;19.83;;;18.77;;
9254;SDS011;4663;49.120;9.730;2023-08-31T12:24:23;18.63;;;17.60;;
9254;SDS011;4663;49.120;9.730;2023-08-31T12:26:49;19.92;;;18.85;;
9254;SDS011;4663;49.120;9.730;2023-08-31T12:29:15;18.75;;;17.75;;
9254;SDS011;4663;49.120;9.730;2023-08-31T12:31:41;17.80;;;16.60;;
9254;SDS011;4663;49.120;9.730;2023-08-31T12:34:08;18.05;;;16.95;;
9254;SDS011;4663;49.120;9.730;2023-08-31T12:36:34;17.65;;;16.65;;
9254;SDS011;4663;49.120;9.730;2023-08-31T12:39:01;17.92;;;16.67;;
9254;SDS011;4663;49.120;9.730;2023-08-31T12:41:30;17.80;;;16.80;;
9254;SDS011;4663;49.120;9.730;2023-08-31T12:43:56;19.77;;;18.70;;
9254;SDS011;4663;49.120;9.730;2023-08-31T12:46:22;18.25;;;17.20;;
9254;SDS011;4663;49.120;9.730;2023-08-31T12:48:48;18.00;;;16.80;;
9254;SDS011;4663;49.120;9.730;2023-08-31T12:51:14;16.95;;;15.95;;
9254;SDS011;4663;49.120;9.730;2023-08-31T12:53:40;17.98;;;16.98;;
9254;SDS011;4663;49.120;9.730;2023-08-31T12:56:06;17.40;;;16.30;;
9254;SDS011;4663;49.120;9.730;2023-08-31T12:58:31;16.88;;;15.98;;
9254;SDS011;4663;49.120;9.730;2023-08-31T13:01:00;16.73;;;15.57;;
9254;SDS011;4663;49.120;9.730;2023-08-31T13:03:26;18.70;;;17.55;;
9254;SDS011;4663;49.120;9.730;2023-08-31T13:05:52;19.42;;;18.23;;
9254;SDS011;4663;49.120;9.730;2023-08-31T13:08:18;23.55;;;22.08;;
9254;SDS011;4663;49.120;9.730;2023-08-31T13:10:50;24.48;;;23.25;;
9254;SDS011;4663;49.120;9.730;2023-08-31T13:13:16;23.00;;;21.75;;
9254;SDS011;4663;49.120;9.730;2023-08-31T13:15:41;19.13;;;17.88;;
9254;SDS011;4663;49.120;9.730;2023-08-31T13:18:07;17.52;;;16.30;;
9254;SDS011;4663;49.120;9.730;2023-08-31T13:20:32;17.75;;;16.65;;
9254;SDS011;4663;49.120;9.730;2023-08-31T13:22:59;23.05;;;21.75;;
9254;SDS011;4663;49.120;9.730;2023-08-31T13:25:24;27.73;;;26.13;;
9254;SDS011;4663;49.120;9.730;2023-08-31T13:27:49;33.47;;;31.77;;
9254;SDS011;4663;49.120;9.730;2023-08-31T13:30:15;30.83;;;29.30;;
9254;SDS011;4663;49.120;9.730;2023-08-31T13:32:40;29.98;;;28.30;;
9254;SDS011;4663;49.120;9.730;2023-08-31T13:35:06;33.50;;;31.52;;
9254;SDS011;4663;49.120;9.730;2023-08-31T13:37:32;29.75;;;28.13;;
9254;SDS011;4663;49.120;9.730;2023-08-31T13:39:58;29.45;;;27.92;;
9254;SDS011;4663;49.120;9.730;2023-08-31T13:42:25;29.50;;;27.95;;
9254;SDS011;4663;49.120;9.730;2023-08-31T13:44:50;34.08;;;32.33;;
9254;SDS011;4663;49.120;9.730;2023-08-31T13:47:15;36.53;;;34.30;;
9254;SDS011;4663;49.120;9.730;2023-08-31T13:49:41;40.47;;;38.20;;
9254;SDS011;4663;49.120;9.730;2023-08-31T13:52:06;39.45;;;37.45;;
9254;SDS011;4663;49.120;9.730;2023-08-31T13:54:34;42.10;;;39.75;;
9254;SDS011;4663;49.120;9.730;2023-08-31T13:56:59;45.05;;;42.75;;
9254;SDS011;4663;49.120;9.730;2023-08-31T13:59:25;41.75;;;39.70;;
9254;SDS011;4663;49.120;9.730;2023-08-31T14:01:54;37.50;;;35.38;;
9254;SDS011;4663;49.120;9.730;2023-08-31T14:04:20;36.70;;;34.80;;
9254;SDS011;4663;49.120;9.730;2023-08-31T14:06:47;44.28;;;42.03;;
9254;SDS011;4663;49.120;9.730;2023-08-31T14:09:13;46.65;;;44.22;;
9254;SDS011;4663;49.120;9.730;2023-08-31T14:11:39;46.55;;;43.60;;
9254;SDS011;4663;49.120;9.730;2023-08-31T14:14:04;43.35;;;41.15;;
9254;SDS011;4663;49.120;9.730;2023-08-31T14:16:34;43.42;;;41.08;;
9254;SDS011;4663;49.120;9.730;2023-08-31T14:19:01;44.90;;;42.58;;
9254;SDS011;4663;49.120;9.730;2023-08-31T14:21:27;42.45;;;39.88;;
9254;SDS011;4663;49.120;9.730;2023-08-31T14:23:52;40.20;;;38.17;;
9254;SDS011;4663;49.120;9.730;2023-08-31T14:26:20;41.33;;;39.30;;
9254;SDS011;4663;49.120;9.730;2023-08-31T14:28:50;41.55;;;39.47;;
9254;SDS011;4663;49.120;9.730;2023-08-31T14:31:16;37.25;;;35.28;;
9254;SDS011;4663;49.120;9.730;2023-08-31T14:33:42;39.60;;;37.58;;
9254;SDS011;4663;49.120;9.730;2023-08-31T14:36:07;40.13;;;38.05;;
9254;SDS011;4663;49.120;9.730;2023-08-31T14:38:32;37.63;;;35.63;;
9254;SDS011;4663;49.120;9.730;2023-08-31T14:40:58;38.67;;;36.55;;
9254;SDS011;4663;49.120;9.730;2023-08-31T14:43:24;32.38;;;30.65;;
9254;SDS011;4663;49.120;9.730;2023-08-31T14:45:49;30.13;;;28.33;;
9254;SDS011;4663;49.120;9.730;2023-08-31T14:48:14;26.13;;;24.77;;
9254;SDS011;4663;49.120;9.730;2023-08-31T14:50:43;27.73;;;26.23;;
9254;SDS011;4663;49.120;9.730;2023-08-31T14:53:09;30.17;;;28.63;;
9254;SDS011;4663;49.120;9.730;2023-08-31T14:55:34;42.20;;;39.53;;
9254;SDS011;4663;49.120;9.730;2023-08-31T14:58:00;46.10;;;43.72;;
9254;SDS011;4663;49.120;9.730;2023-08-31T15:00:25;52.40;;;49.55;;
9254;SDS011;4663;49.120;9.730;2023-08-31T15:02:50;59.80;;;56.88;;
9254;SDS011;4663;49.120;9.730;2023-08-31T15:05:16;58.92;;;55.88;;
9254;SDS011;4663;49.120;9.730;2023-08-31T15:07:41;56.00;;;53.13;;
9254;SDS011;4663;49.120;9.730;2023-08-31T15:10:07;55.15;;;51.97;;
9254;SDS011;4663;49.120;9.730;2023-08-31T15:12:33;57.17;;;54.13;;
9254;SDS011;4663;49.120;9.730;2023-08-31T15:14:58;51.90;;;49.25;;